createdAt,value
2022-09-01T00:00:01.400Z,1.70
2022-09-01T00:02:29.110Z,1.63
2022-09-01T00:04:59.067Z,1.58
2022-09-01T00:07:32.712Z,1.70
2022-09-01T00:09:59.829Z,1.50
2022-09-01T00:12:27.258Z,1.88
2022-09-01T00:14:54.772Z,1.50
2022-09-01T00:17:22.138Z,1.42
2022-09-01T00:19:49.632Z,1.40
2022-09-01T00:22:16.730Z,1.30
2022-09-01T00:24:43.653Z,1.50
2022-09-01T00:27:10.596Z,2.00
2022-09-01T00:29:37.394Z,2.00
2022-09-01T00:32:05.276Z,2.10
2022-09-01T00:34:31.869Z,2.17
2022-09-01T00:36:58.609Z,1.92
2022-09-01T00:39:25.390Z,2.00
2022-09-01T00:41:52.347Z,2.08
2022-09-01T00:44:24.791Z,2.30
2022-09-01T00:46:55.181Z,2.45
2022-09-01T00:49:39.571Z,2.33
2022-09-01T00:52:32.989Z,2.30
2022-09-01T00:55:04.503Z,2.15
2022-09-01T00:57:31.209Z,2.30
2022-09-01T01:00:07.118Z,2.40
2022-09-01T01:02:34.062Z,2.40
2022-09-01T01:05:00.880Z,2.50
2022-09-01T01:07:28.292Z,2.83
2022-09-01T01:09:55.542Z,2.55
2022-09-01T01:12:22.313Z,2.65
2022-09-01T01:14:52.789Z,2.38
2022-09-01T01:17:21.330Z,2.40
2022-09-01T01:20:15.332Z,2.45
2022-09-01T01:23:09.236Z,2.78
2022-09-01T01:25:45.196Z,2.53
2022-09-01T01:28:18.741Z,2.63
2022-09-01T01:30:56.320Z,2.38
2022-09-01T01:33:32.618Z,2.50
2022-09-01T01:36:00.315Z,2.50
2022-09-01T01:38:28.218Z,2.67
2022-09-01T01:40:56.508Z,2.70
2022-09-01T01:43:24.120Z,2.50
2022-09-01T01:45:53.804Z,2.80
2022-09-01T01:48:24.723Z,2.58
2022-09-01T01:50:53.165Z,2.30
2022-09-01T01:53:20.787Z,2.60
2022-09-01T01:55:50.827Z,2.63
2022-09-01T01:58:22.658Z,2.83
2022-09-01T02:00:51.775Z,2.70
2022-09-01T02:03:21.978Z,2.80
2022-09-01T02:05:50.972Z,2.80
2022-09-01T02:08:21.225Z,2.58
2022-09-01T02:10:50.512Z,2.50
2022-09-01T02:13:19.525Z,2.40
2022-09-01T02:15:53.981Z,2.33
2022-09-01T02:18:31.221Z,2.80
2022-09-01T02:20:59.130Z,2.50
2022-09-01T02:23:25.827Z,2.53
2022-09-01T02:26:15.684Z,2.35
2022-09-01T02:28:45.549Z,2.80
2022-09-01T02:31:12.575Z,3.30
2022-09-01T02:33:40.837Z,2.85
2022-09-01T02:36:14.057Z,2.72
2022-09-01T02:38:46.584Z,2.95
2022-09-01T02:41:14.524Z,2.70
2022-09-01T02:43:46.322Z,2.80
2022-09-01T02:46:15.477Z,2.72
2022-09-01T02:48:46.122Z,2.50
2022-09-01T02:51:15.587Z,2.65
2022-09-01T02:53:43.903Z,2.20
2022-09-01T02:56:15.499Z,1.90
2022-09-01T02:58:46.376Z,2.10
2022-09-01T03:01:19.901Z,2.10
2022-09-01T03:03:48.007Z,1.70
2022-09-01T03:06:18.111Z,1.52
2022-09-01T03:08:45.637Z,1.73
2022-09-01T03:11:13.217Z,1.50
2022-09-01T03:13:41.544Z,1.30
2022-09-01T03:16:09.058Z,1.40
2022-09-01T03:18:35.778Z,1.30
2022-09-01T03:21:03.045Z,1.50
2022-09-01T03:23:31.553Z,1.40
2022-09-01T03:25:58.588Z,1.30
2022-09-01T03:28:25.901Z,1.23
2022-09-01T03:30:54.831Z,1.50
2022-09-01T03:33:22.847Z,1.90
2022-09-01T03:35:50.029Z,2.00
2022-09-01T03:38:21.151Z,1.80
2022-09-01T03:40:49.618Z,2.00
2022-09-01T03:43:17.343Z,1.50
2022-09-01T03:45:45.115Z,1.20
2022-09-01T03:48:12.902Z,1.30
2022-09-01T03:50:44.213Z,1.35
2022-09-01T03:53:12.300Z,1.50
2022-09-01T03:55:39.579Z,1.60
2022-09-01T03:58:10.179Z,1.40
2022-09-01T04:00:41.347Z,1.40
2022-09-01T04:03:28.382Z,1.38
2022-09-01T04:05:55.409Z,1.30
2022-09-01T04:08:32.285Z,1.40
2022-09-01T04:11:14.112Z,1.38
2022-09-01T04:13:41.849Z,1.63
2022-09-01T04:16:37.762Z,1.80
2022-09-01T04:19:16.223Z,1.60
2022-09-01T04:21:47.451Z,1.77
2022-09-01T04:24:17.079Z,1.55
2022-09-01T04:26:48.350Z,1.50
2022-09-01T04:29:18.832Z,1.30
2022-09-01T04:31:52.344Z,1.20
2022-09-01T04:34:20.637Z,1.53
2022-09-01T04:36:49.988Z,1.80
2022-09-01T04:39:21.358Z,1.73
2022-09-01T04:41:49.575Z,1.50
2022-09-01T04:44:19.411Z,1.55
2022-09-01T04:46:48.013Z,1.58
2022-09-01T04:49:20.022Z,1.70
2022-09-01T04:51:53.429Z,1.70
2022-09-01T04:54:22.839Z,1.65
2022-09-01T04:56:52.702Z,1.65
2022-09-01T04:59:22.327Z,1.50
2022-09-01T05:01:51.065Z,2.30
2022-09-01T05:04:24.766Z,3.20
2022-09-01T05:06:56.214Z,5.55
2022-09-01T05:09:22.916Z,2.70
2022-09-01T05:11:50.288Z,6.07
2022-09-01T05:14:20.081Z,3.92
2022-09-01T05:16:46.931Z,3.72
2022-09-01T05:19:21.025Z,4.10
2022-09-01T05:21:48.138Z,3.75
2022-09-01T05:24:19.210Z,3.38
2022-09-01T05:26:47.628Z,2.60
2022-09-01T05:29:17.957Z,1.90
2022-09-01T05:31:49.450Z,1.88
2022-09-01T05:34:26.511Z,1.73
2022-09-01T05:36:57.424Z,2.55
2022-09-01T05:39:25.282Z,3.03
2022-09-01T05:41:54.045Z,5.00
2022-09-01T05:44:23.136Z,8.35
2022-09-01T05:46:50.697Z,8.60
2022-09-01T05:49:18.977Z,6.20
2022-09-01T05:51:50.563Z,2.90
2022-09-01T05:54:25.758Z,2.03
2022-09-01T05:56:54.079Z,2.05
2022-09-01T05:59:23.165Z,1.90
2022-09-01T06:01:50.945Z,2.63
2022-09-01T06:04:18.063Z,4.00
2022-09-01T06:07:07.067Z,2.38
2022-09-01T06:09:42.657Z,2.13
2022-09-01T06:12:18.657Z,2.20
2022-09-01T06:14:50.982Z,1.90
2022-09-01T06:17:19.741Z,1.63
2022-09-01T06:19:46.888Z,1.90
2022-09-01T06:22:13.559Z,1.60
2022-09-01T06:24:43.838Z,1.73
2022-09-01T06:27:12.581Z,1.50
2022-09-01T06:29:42.753Z,1.50
2022-09-01T06:32:10.646Z,1.50
2022-09-01T06:34:42.751Z,1.77
2022-09-01T06:37:11.327Z,1.50
2022-09-01T06:39:38.572Z,1.65
2022-09-01T06:42:06.328Z,1.48
2022-09-01T06:44:40.733Z,1.50
2022-09-01T06:47:09.273Z,1.55
2022-09-01T06:49:36.625Z,1.60
2022-09-01T06:52:04.344Z,1.45
2022-09-01T06:54:34.838Z,1.35
2022-09-01T06:59:54.361Z,1.40
2022-09-01T07:02:24.436Z,1.75
2022-09-01T07:04:54.790Z,1.60
2022-09-01T07:10:25.135Z,1.55
2022-09-01T07:13:10.873Z,1.70
2022-09-01T07:18:30.986Z,1.50
2022-09-01T07:21:35.795Z,1.33
2022-09-01T07:24:07.588Z,1.50
2022-09-01T07:26:34.019Z,1.35
2022-09-01T07:29:04.351Z,1.60
2022-09-01T07:34:41.957Z,1.40
2022-09-01T07:45:47.242Z,1.60
2022-09-01T07:51:35.022Z,1.35
2022-09-01T07:53:54.557Z,1.30
2022-09-01T07:56:23.782Z,1.33
2022-09-01T07:58:51.926Z,1.42
2022-09-01T08:01:24.404Z,1.40
2022-09-01T08:03:54.343Z,1.52
2022-09-01T08:06:22.792Z,1.30
2022-09-01T08:08:50.969Z,1.40
2022-09-01T08:14:18.097Z,1.42
2022-09-01T08:16:53.155Z,1.30
2022-09-01T08:19:20.528Z,1.20
2022-09-01T08:21:47.223Z,1.30
2022-09-01T08:24:14.733Z,1.30
2022-09-01T08:26:41.923Z,1.40
2022-09-01T08:29:09.065Z,1.27
2022-09-01T08:31:36.235Z,1.50
2022-09-01T08:34:05.700Z,1.40
2022-09-01T08:36:33.364Z,1.25
2022-09-01T08:39:00.179Z,1.17
2022-09-01T08:41:47.360Z,1.40
2022-09-01T08:44:50.527Z,1.23
2022-09-01T08:47:28.806Z,1.23
2022-09-01T08:50:00.308Z,1.30
2022-09-01T08:52:30.215Z,1.23
2022-09-01T08:55:01.011Z,1.17
2022-09-01T08:57:33.307Z,1.25
2022-09-01T09:00:00.812Z,1.10
2022-09-01T09:03:07.694Z,1.40
2022-09-01T09:05:58.163Z,1.13
2022-09-01T09:08:58.122Z,1.30
2022-09-01T09:12:22.825Z,1.17
2022-09-01T09:15:16.183Z,1.30
2022-09-01T09:17:56.005Z,1.02
2022-09-01T09:20:28.238Z,1.15
2022-09-01T09:22:55.965Z,0.90
2022-09-01T09:25:24.594Z,1.15
2022-09-01T09:28:01.116Z,1.08
2022-09-01T09:30:31.643Z,1.23
2022-09-01T09:35:57.676Z,1.05
2022-09-01T09:38:29.486Z,1.20
2022-09-01T09:41:20.390Z,1.20
2022-09-01T09:44:04.936Z,1.10
2022-09-01T09:46:46.252Z,1.00
2022-09-01T09:49:36.310Z,1.10
2022-09-01T09:52:16.371Z,1.10
2022-09-01T09:55:04.915Z,1.08
2022-09-01T09:57:32.880Z,1.42
2022-09-01T10:00:08.948Z,1.45
2022-09-01T10:02:37.339Z,1.00
2022-09-01T10:05:33.576Z,1.50
2022-09-01T10:08:02.303Z,1.40
2022-09-01T10:10:57.351Z,1.40
2022-09-01T10:13:26.950Z,1.30
2022-09-01T10:15:56.929Z,1.30
2022-09-01T10:18:29.490Z,1.33
2022-09-01T10:21:19.178Z,1.27
2022-09-01T10:23:47.060Z,1.25
2022-09-01T10:26:38.432Z,1.10
2022-09-01T10:29:50.630Z,1.20
2022-09-01T10:32:37.031Z,1.42
2022-09-01T10:35:06.943Z,1.33
2022-09-01T10:37:35.390Z,1.33
2022-09-01T10:40:36.182Z,1.25
2022-09-01T10:43:36.155Z,1.38
2022-09-01T10:46:50.404Z,1.20
2022-09-01T10:49:25.160Z,1.10
2022-09-01T10:51:56.938Z,1.23
2022-09-01T10:55:02.161Z,1.20
2022-09-01T10:57:46.311Z,1.10
2022-09-01T11:01:10.653Z,1.70
2022-09-01T11:03:56.462Z,1.50
2022-09-01T11:09:44.104Z,1.45
2022-09-01T11:12:29.857Z,1.10
2022-09-01T11:15:02.738Z,1.17
2022-09-01T11:17:38.626Z,1.00
2022-09-01T11:20:11.401Z,1.20
2022-09-01T11:22:57.919Z,1.20
2022-09-01T11:25:39.693Z,1.25
2022-09-01T11:28:18.010Z,1.02
2022-09-01T11:31:12.314Z,1.35
2022-09-01T11:34:10.049Z,1.10
2022-09-01T11:36:59.883Z,1.10
2022-09-01T11:39:48.269Z,1.20
2022-09-01T11:42:25.441Z,1.10
2022-09-01T11:45:21.434Z,1.30
2022-09-01T11:47:52.573Z,1.20
2022-09-01T11:50:24.026Z,1.10
2022-09-01T11:53:04.689Z,1.30
2022-09-01T11:55:43.642Z,1.08
2022-09-01T11:58:33.857Z,1.20
2022-09-01T12:01:20.455Z,1.10
2022-09-01T12:03:49.766Z,1.13
2022-09-01T12:06:27.568Z,0.93
2022-09-01T12:08:57.898Z,1.00
2022-09-01T12:11:31.397Z,1.05
2022-09-01T12:14:21.790Z,1.15
2022-09-01T12:16:59.313Z,1.00
2022-09-01T12:19:30.484Z,1.08
2022-09-01T12:22:01.555Z,1.02
2022-09-01T12:24:33.161Z,1.10
2022-09-01T12:27:01.289Z,0.90
2022-09-01T12:29:32.137Z,1.10
2022-09-01T12:32:00.821Z,1.13
2022-09-01T12:34:38.983Z,1.02
2022-09-01T12:37:25.008Z,1.20
2022-09-01T12:39:57.804Z,1.00
2022-09-01T12:42:30.029Z,1.10
2022-09-01T12:45:09.952Z,0.90
2022-09-01T12:47:50.638Z,1.00
2022-09-01T12:50:37.920Z,1.35
2022-09-01T12:53:15.631Z,0.98
2022-09-01T12:55:55.540Z,1.20
2022-09-01T12:58:27.553Z,1.20
2022-09-01T13:01:09.214Z,0.95
2022-09-01T13:03:44.239Z,1.00
2022-09-01T13:06:11.293Z,1.00
2022-09-01T13:08:38.553Z,1.30
2022-09-01T13:11:20.185Z,1.67
2022-09-01T13:13:47.490Z,1.00
2022-09-01T13:16:14.904Z,0.90
2022-09-01T13:21:32.449Z,0.98
2022-09-01T13:23:59.223Z,1.02
2022-09-01T13:26:26.495Z,1.10
2022-09-01T13:28:54.211Z,1.00
2022-09-01T13:31:29.518Z,0.90
2022-09-01T13:34:23.086Z,0.90
2022-09-01T13:36:48.603Z,1.10
2022-09-01T13:39:20.445Z,1.02
2022-09-01T13:41:47.944Z,1.00
2022-09-01T13:44:17.258Z,1.00
2022-09-01T13:47:00.996Z,0.80
2022-09-01T13:52:19.331Z,0.90
2022-09-01T13:54:46.240Z,1.13
2022-09-01T13:57:14.951Z,1.00
2022-09-01T13:59:42.661Z,1.27
2022-09-01T14:02:11.143Z,1.00
2022-09-01T14:04:38.332Z,1.10
2022-09-01T14:07:05.309Z,1.05
2022-09-01T14:09:32.019Z,1.20
2022-09-01T14:11:59.752Z,1.00
2022-09-01T14:14:26.893Z,1.05
2022-09-01T14:16:54.594Z,0.98
2022-09-01T14:19:21.355Z,0.90
2022-09-01T14:21:49.788Z,1.20
2022-09-01T14:24:20.099Z,1.00
2022-09-01T14:26:48.696Z,1.05
2022-09-01T14:29:15.476Z,1.20
2022-09-01T14:31:44.341Z,1.00
2022-09-01T14:34:12.234Z,1.10
2022-09-01T14:36:39.472Z,1.20
2022-09-01T14:39:06.917Z,1.10
2022-09-01T14:41:34.126Z,1.20
2022-09-01T14:44:03.543Z,1.30
2022-09-01T14:46:31.304Z,1.00
2022-09-01T14:48:58.357Z,1.40
2022-09-01T14:52:10.411Z,1.38
2022-09-01T14:54:16.257Z,0.90
2022-09-01T14:57:27.226Z,1.20
2022-09-01T14:59:30.112Z,1.20
2022-09-01T15:01:56.914Z,0.90
2022-09-01T15:04:23.740Z,1.10
2022-09-01T15:06:51.363Z,0.90
2022-09-01T15:09:19.275Z,1.50
2022-09-01T15:11:46.534Z,1.02
2022-09-01T15:14:14.154Z,0.95
2022-09-01T15:16:41.811Z,0.88
2022-09-01T15:19:14.150Z,0.90
2022-09-01T15:21:42.876Z,0.90
2022-09-01T15:24:11.111Z,1.00
2022-09-01T15:26:40.912Z,0.70
2022-09-01T15:29:10.092Z,1.08
2022-09-01T15:31:36.859Z,0.90
2022-09-01T15:34:04.261Z,1.00
2022-09-01T15:36:31.931Z,0.93
2022-09-01T15:38:59.182Z,1.15
2022-09-01T15:41:28.750Z,0.90
2022-09-01T15:43:56.479Z,0.90
2022-09-01T15:46:32.447Z,1.00
2022-09-01T15:49:00.962Z,0.90
2022-09-01T15:51:46.443Z,0.95
2022-09-01T15:54:15.937Z,0.80
2022-09-01T15:56:43.176Z,1.00
2022-09-01T15:59:10.645Z,1.00
2022-09-01T16:01:40.445Z,1.08
2022-09-01T16:04:09.297Z,1.23
2022-09-01T16:06:36.334Z,0.80
2022-09-01T16:09:05.127Z,0.98
2022-09-01T16:11:32.022Z,0.90
2022-09-01T16:13:59.165Z,0.98
2022-09-01T16:16:54.266Z,0.95
2022-09-01T16:19:34.178Z,1.00
2022-09-01T16:22:14.721Z,0.80
2022-09-01T16:24:46.341Z,1.05
2022-09-01T16:27:18.966Z,0.90
2022-09-01T16:30:11.936Z,0.80
2022-09-01T16:32:45.089Z,0.70
2022-09-01T16:35:12.028Z,0.80
2022-09-01T16:38:08.984Z,0.88
2022-09-01T16:40:51.223Z,0.70
2022-09-01T16:43:44.739Z,0.73
2022-09-01T16:46:30.603Z,0.90
2022-09-01T16:49:12.508Z,0.80
2022-09-01T16:51:53.238Z,0.70
2022-09-01T16:55:05.370Z,0.73
2022-09-01T16:58:00.796Z,0.82
2022-09-01T17:00:38.729Z,0.70
2022-09-01T17:03:19.143Z,0.80
2022-09-01T17:05:58.096Z,0.70
2022-09-01T17:08:31.136Z,0.73
2022-09-01T17:11:18.215Z,1.00
2022-09-01T17:13:49.956Z,0.77
2022-09-01T17:16:30.043Z,0.70
2022-09-01T17:19:02.198Z,1.10
2022-09-01T17:21:37.197Z,1.00
2022-09-01T17:24:30.361Z,0.90
2022-09-01T17:27:03.689Z,1.27
2022-09-01T17:29:35.840Z,0.90
2022-09-01T17:32:48.356Z,1.05
2022-09-01T17:35:28.376Z,0.80
2022-09-01T17:38:40.452Z,1.40
2022-09-01T17:41:39.374Z,0.80
2022-09-01T17:44:35.760Z,0.80
2022-09-01T17:47:27.184Z,0.90
2022-09-01T17:50:41.688Z,0.80
2022-09-01T17:53:24.205Z,0.80
2022-09-01T17:59:19.973Z,0.98
2022-09-01T18:02:13.154Z,1.00
2022-09-01T18:04:49.870Z,1.00
2022-09-01T18:08:01.431Z,1.60
2022-09-01T18:10:34.414Z,1.02
2022-09-01T18:13:05.356Z,1.23
2022-09-01T18:15:54.453Z,0.90
2022-09-01T18:18:46.060Z,0.90
2022-09-01T18:21:49.430Z,2.00
2022-09-01T18:24:21.192Z,1.40
2022-09-01T18:26:50.605Z,0.80
2022-09-01T18:29:17.831Z,1.00
2022-09-01T18:32:21.449Z,1.20
2022-09-01T18:35:01.605Z,0.90
2022-09-01T18:38:15.260Z,0.90
2022-09-01T18:40:56.399Z,0.90
2022-09-01T18:43:38.986Z,1.10
2022-09-01T18:46:53.651Z,4.57
2022-09-01T18:49:28.486Z,1.30
2022-09-01T18:52:06.813Z,2.08
2022-09-01T18:54:38.792Z,5.70
2022-09-01T18:57:08.022Z,6.70
2022-09-01T18:59:39.222Z,4.60
2022-09-01T19:02:47.603Z,3.28
2022-09-01T19:05:53.647Z,2.17
2022-09-01T19:08:49.070Z,8.98
2022-09-01T19:11:55.205Z,6.50
2022-09-01T19:14:43.598Z,2.15
2022-09-01T19:17:39.232Z,2.85
2022-09-01T19:20:19.069Z,2.10
2022-09-01T19:23:32.985Z,1.40
2022-09-01T19:26:07.125Z,2.25
2022-09-01T19:29:06.741Z,0.93
2022-09-01T19:31:39.353Z,1.00
2022-09-01T19:34:27.192Z,1.02
2022-09-01T19:36:57.287Z,1.00
2022-09-01T19:39:28.124Z,0.98
2022-09-01T19:42:13.708Z,0.93
2022-09-01T19:51:45.181Z,0.90
2022-09-01T19:54:21.955Z,1.00
2022-09-01T19:57:23.094Z,1.00
2022-09-01T20:00:04.256Z,0.88
2022-09-01T20:02:35.542Z,1.10
2022-09-01T20:05:22.569Z,0.85
2022-09-01T20:07:56.602Z,0.88
2022-09-01T20:13:34.911Z,0.90
2022-09-01T20:16:32.586Z,0.93
2022-09-01T20:19:04.261Z,1.33
2022-09-01T20:21:31.722Z,1.27
2022-09-01T20:24:05.757Z,1.13
2022-09-01T20:26:41.714Z,1.00
2022-09-01T20:29:43.313Z,0.85
2022-09-01T20:32:20.574Z,1.10
2022-09-01T20:34:54.622Z,1.20
2022-09-01T20:37:27.189Z,0.88
2022-09-01T20:40:17.417Z,1.00
2022-09-01T20:43:22.671Z,0.90
2022-09-01T20:45:49.774Z,1.02
2022-09-01T20:48:22.026Z,0.90
2022-09-01T20:51:09.352Z,1.30
2022-09-01T20:53:54.960Z,1.60
2022-09-01T20:56:30.074Z,1.90
2022-09-01T20:59:21.169Z,1.42
2022-09-01T21:02:33.297Z,1.20
2022-09-01T21:06:04.451Z,1.40
2022-09-01T21:08:43.794Z,1.30
2022-09-01T21:11:22.840Z,1.27
2022-09-01T21:14:23.601Z,1.13
2022-09-01T21:17:40.325Z,1.10
2022-09-01T21:20:48.581Z,0.90
2022-09-01T21:23:16.715Z,0.95
2022-09-01T21:25:44.438Z,0.88
2022-09-01T21:28:18.701Z,1.02
2022-09-01T21:30:52.153Z,0.75
2022-09-01T21:33:18.988Z,0.73
2022-09-01T21:35:45.926Z,0.73
2022-09-01T21:38:12.556Z,0.70
2022-09-01T21:40:39.449Z,0.93
2022-09-01T21:43:15.337Z,0.80
2022-09-01T21:45:42.244Z,0.80
2022-09-01T21:48:09.158Z,1.00
2022-09-01T21:50:36.094Z,0.60
2022-09-01T21:53:02.753Z,0.80
2022-09-01T21:55:30.117Z,0.68
2022-09-01T21:57:56.771Z,0.75
2022-09-01T22:00:27.150Z,0.60
2022-09-01T22:02:54.950Z,0.75
2022-09-01T22:05:22.211Z,0.60
2022-09-01T22:07:48.887Z,1.00
2022-09-01T22:10:18.128Z,0.60
2022-09-01T22:12:46.402Z,0.70
2022-09-01T22:15:16.786Z,0.68
2022-09-01T22:17:43.564Z,0.60
2022-09-01T22:20:12.337Z,0.60
2022-09-01T22:22:39.715Z,0.68
2022-09-01T22:25:08.935Z,0.80
2022-09-01T22:27:35.715Z,0.70
2022-09-01T22:30:04.605Z,0.70
2022-09-01T22:32:33.973Z,0.80
2022-09-01T22:35:03.339Z,0.70
2022-09-01T22:37:30.044Z,0.70
2022-09-01T22:39:56.673Z,0.70
2022-09-01T22:42:23.377Z,0.95
2022-09-01T22:44:50.021Z,0.50
2022-09-01T22:47:16.712Z,0.70
2022-09-01T22:49:44.037Z,0.70
2022-09-01T22:52:10.614Z,0.75
2022-09-01T22:54:38.448Z,0.80
2022-09-01T22:57:05.259Z,0.60
2022-09-01T22:59:31.980Z,0.68
2022-09-01T23:02:01.372Z,0.60
2022-09-01T23:04:28.277Z,0.60
2022-09-01T23:06:54.937Z,0.80
2022-09-01T23:09:21.849Z,0.60
2022-09-01T23:11:48.738Z,0.70
2022-09-01T23:14:15.555Z,0.63
2022-09-01T23:16:42.394Z,0.80
2022-09-01T23:19:09.169Z,0.70
2022-09-01T23:21:37.742Z,0.90
2022-09-01T23:24:05.152Z,0.60
2022-09-01T23:26:32.238Z,0.75
2022-09-01T23:28:59.616Z,0.60
2022-09-01T23:31:28.990Z,0.77
2022-09-01T23:33:56.200Z,0.60
2022-09-01T23:36:25.152Z,0.82
2022-09-01T23:38:52.671Z,0.60
2022-09-01T23:41:23.535Z,0.90
2022-09-01T23:43:51.860Z,0.85
2022-09-01T23:46:27.639Z,0.88
2022-09-01T23:48:54.767Z,0.75
2022-09-01T23:51:23.084Z,0.80
2022-09-01T23:53:50.093Z,0.70
2022-09-01T23:56:19.556Z,0.70
2022-09-01T23:58:46.783Z,0.70
